sensor_id;sensor_type;location;lat;lon;timestamp;P1;durP1;ratioP1;P2;durP2;ratioP2
57067;SDS011;43391;47.448;18.904;2023-05-07T00:01:10;14.63;;;11.95;;
57067;SDS011;43391;47.448;18.904;2023-05-07T00:03:36;15.60;;;12.88;;
57067;SDS011;43391;47.448;18.904;2023-05-07T00:06:01;14.77;;;11.65;;
57067;SDS011;43391;47.448;18.904;2023-05-07T00:08:26;19.67;;;12.25;;
57067;SDS011;43391;47.448;18.904;2023-05-07T00:10:52;16.90;;;12.70;;
57067;SDS011;43391;47.448;18.904;2023-05-07T00:13:17;14.60;;;11.73;;
57067;SDS011;43391;47.448;18.904;2023-05-07T00:15:43;15.25;;;11.40;;
57067;SDS011;43391;47.448;18.904;2023-05-07T00:18:08;13.63;;;10.98;;
57067;SDS011;43391;47.448;18.904;2023-05-07T00:20:33;14.90;;;11.52;;
57067;SDS011;43391;47.448;18.904;2023-05-07T00:22:59;14.32;;;11.05;;
57067;SDS011;43391;47.448;18.904;2023-05-07T00:25:24;13.40;;;10.05;;
57067;SDS011;43391;47.448;18.904;2023-05-07T00:27:49;15.23;;;11.43;;
57067;SDS011;43391;47.448;18.904;2023-05-07T00:30:15;13.23;;;10.90;;
57067;SDS011;43391;47.448;18.904;2023-05-07T00:32:40;13.57;;;10.70;;
57067;SDS011;43391;47.448;18.904;2023-05-07T00:35:06;12.90;;;10.75;;
57067;SDS011;43391;47.448;18.904;2023-05-07T00:37:32;16.27;;;11.80;;
57067;SDS011;43391;47.448;18.904;2023-05-07T00:39:57;15.50;;;11.63;;
57067;SDS011;43391;47.448;18.904;2023-05-07T00:42:22;13.68;;;11.18;;
57067;SDS011;43391;47.448;18.904;2023-05-07T00:44:49;15.10;;;12.13;;
57067;SDS011;43391;47.448;18.904;2023-05-07T00:47:14;14.95;;;12.50;;
57067;SDS011;43391;47.448;18.904;2023-05-07T00:49:41;14.68;;;12.10;;
57067;SDS011;43391;47.448;18.904;2023-05-07T00:52:08;18.23;;;12.48;;
57067;SDS011;43391;47.448;18.904;2023-05-07T00:54:36;15.63;;;12.02;;
57067;SDS011;43391;47.448;18.904;2023-05-07T00:57:02;15.45;;;12.20;;
57067;SDS011;43391;47.448;18.904;2023-05-07T00:59:28;14.88;;;12.32;;
57067;SDS011;43391;47.448;18.904;2023-05-07T01:01:54;15.88;;;11.85;;
57067;SDS011;43391;47.448;18.904;2023-05-07T01:04:20;13.45;;;11.50;;
57067;SDS011;43391;47.448;18.904;2023-05-07T01:06:45;12.77;;;11.38;;
57067;SDS011;43391;47.448;18.904;2023-05-07T01:09:11;18.50;;;12.32;;
57067;SDS011;43391;47.448;18.904;2023-05-07T01:11:37;12.35;;;11.05;;
57067;SDS011;43391;47.448;18.904;2023-05-07T01:14:04;14.80;;;12.65;;
57067;SDS011;43391;47.448;18.904;2023-05-07T01:16:30;14.52;;;11.70;;
57067;SDS011;43391;47.448;18.904;2023-05-07T01:18:56;13.65;;;11.95;;
57067;SDS011;43391;47.448;18.904;2023-05-07T01:21:24;15.30;;;11.43;;
57067;SDS011;43391;47.448;18.904;2023-05-07T01:23:51;12.13;;;10.13;;
57067;SDS011;43391;47.448;18.904;2023-05-07T01:26:18;12.55;;;9.77;;
57067;SDS011;43391;47.448;18.904;2023-05-07T01:28:44;12.55;;;10.13;;
57067;SDS011;43391;47.448;18.904;2023-05-07T01:31:10;13.32;;;10.45;;
57067;SDS011;43391;47.448;18.904;2023-05-07T01:33:38;11.00;;;9.65;;
57067;SDS011;43391;47.448;18.904;2023-05-07T01:36:06;10.30;;;9.02;;
57067;SDS011;43391;47.448;18.904;2023-05-07T01:38:33;12.05;;;9.45;;
57067;SDS011;43391;47.448;18.904;2023-05-07T01:41:00;12.15;;;9.45;;
57067;SDS011;43391;47.448;18.904;2023-05-07T01:43:26;11.30;;;9.40;;
57067;SDS011;43391;47.448;18.904;2023-05-07T01:45:52;21.13;;;9.73;;
57067;SDS011;43391;47.448;18.904;2023-05-07T01:48:18;12.00;;;9.98;;
57067;SDS011;43391;47.448;18.904;2023-05-07T01:50:43;10.43;;;9.20;;
57067;SDS011;43391;47.448;18.904;2023-05-07T01:53:09;12.02;;;9.57;;
57067;SDS011;43391;47.448;18.904;2023-05-07T01:55:35;15.40;;;9.80;;
57067;SDS011;43391;47.448;18.904;2023-05-07T01:58:01;11.60;;;9.55;;
57067;SDS011;43391;47.448;18.904;2023-05-07T02:00:27;10.35;;;9.25;;
57067;SDS011;43391;47.448;18.904;2023-05-07T02:02:53;12.07;;;9.95;;
57067;SDS011;43391;47.448;18.904;2023-05-07T02:05:19;12.32;;;9.57;;
57067;SDS011;43391;47.448;18.904;2023-05-07T02:07:44;11.98;;;10.00;;
57067;SDS011;43391;47.448;18.904;2023-05-07T02:10:10;10.70;;;9.60;;
57067;SDS011;43391;47.448;18.904;2023-05-07T02:12:35;11.65;;;9.60;;
57067;SDS011;43391;47.448;18.904;2023-05-07T02:15:01;10.63;;;9.50;;
57067;SDS011;43391;47.448;18.904;2023-05-07T02:17:26;10.45;;;9.35;;
57067;SDS011;43391;47.448;18.904;2023-05-07T02:19:51;11.85;;;8.75;;
57067;SDS011;43391;47.448;18.904;2023-05-07T02:22:17;12.18;;;8.48;;
57067;SDS011;43391;47.448;18.904;2023-05-07T02:24:43;10.43;;;8.93;;
57067;SDS011;43391;47.448;18.904;2023-05-07T02:27:08;10.98;;;8.57;;
57067;SDS011;43391;47.448;18.904;2023-05-07T02:29:33;10.38;;;8.55;;
57067;SDS011;43391;47.448;18.904;2023-05-07T02:31:59;10.57;;;9.15;;
57067;SDS011;43391;47.448;18.904;2023-05-07T02:34:24;18.77;;;10.60;;
57067;SDS011;43391;47.448;18.904;2023-05-07T02:36:49;12.80;;;10.07;;
57067;SDS011;43391;47.448;18.904;2023-05-07T02:39:16;10.88;;;9.35;;
57067;SDS011;43391;47.448;18.904;2023-05-07T02:41:41;16.95;;;12.13;;
57067;SDS011;43391;47.448;18.904;2023-05-07T02:44:07;12.63;;;10.13;;
57067;SDS011;43391;47.448;18.904;2023-05-07T02:46:32;14.27;;;10.40;;
57067;SDS011;43391;47.448;18.904;2023-05-07T02:48:58;16.83;;;11.27;;
57067;SDS011;43391;47.448;18.904;2023-05-07T02:51:23;15.73;;;12.45;;
57067;SDS011;43391;47.448;18.904;2023-05-07T02:53:48;12.93;;;10.48;;
57067;SDS011;43391;47.448;18.904;2023-05-07T02:56:14;11.25;;;9.93;;
57067;SDS011;43391;47.448;18.904;2023-05-07T02:58:40;13.68;;;10.55;;
57067;SDS011;43391;47.448;18.904;2023-05-07T03:01:07;13.90;;;11.18;;
57067;SDS011;43391;47.448;18.904;2023-05-07T03:03:33;13.43;;;10.73;;
57067;SDS011;43391;47.448;18.904;2023-05-07T03:05:58;15.07;;;11.85;;
57067;SDS011;43391;47.448;18.904;2023-05-07T03:08:24;16.42;;;12.65;;
57067;SDS011;43391;47.448;18.904;2023-05-07T03:10:49;14.82;;;12.80;;
57067;SDS011;43391;47.448;18.904;2023-05-07T03:13:15;15.52;;;13.75;;
57067;SDS011;43391;47.448;18.904;2023-05-07T03:15:40;17.70;;;14.23;;
57067;SDS011;43391;47.448;18.904;2023-05-07T03:18:06;21.35;;;15.60;;
57067;SDS011;43391;47.448;18.904;2023-05-07T03:20:31;16.50;;;14.35;;
57067;SDS011;43391;47.448;18.904;2023-05-07T03:22:57;19.60;;;13.20;;
57067;SDS011;43391;47.448;18.904;2023-05-07T03:25:22;16.70;;;13.90;;
57067;SDS011;43391;47.448;18.904;2023-05-07T03:27:48;18.80;;;13.40;;
57067;SDS011;43391;47.448;18.904;2023-05-07T03:30:13;14.52;;;12.13;;
57067;SDS011;43391;47.448;18.904;2023-05-07T03:32:39;15.57;;;11.45;;
57067;SDS011;43391;47.448;18.904;2023-05-07T03:35:04;12.20;;;9.43;;
57067;SDS011;43391;47.448;18.904;2023-05-07T03:37:30;8.85;;;7.80;;
57067;SDS011;43391;47.448;18.904;2023-05-07T03:39:55;9.60;;;7.68;;
57067;SDS011;43391;47.448;18.904;2023-05-07T03:42:21;9.02;;;8.00;;
57067;SDS011;43391;47.448;18.904;2023-05-07T03:44:46;9.13;;;7.43;;
57067;SDS011;43391;47.448;18.904;2023-05-07T03:47:12;8.77;;;7.72;;
57067;SDS011;43391;47.448;18.904;2023-05-07T03:49:38;11.05;;;9.23;;
57067;SDS011;43391;47.448;18.904;2023-05-07T03:52:04;12.02;;;9.82;;
57067;SDS011;43391;47.448;18.904;2023-05-07T03:54:30;18.70;;;14.20;;
57067;SDS011;43391;47.448;18.904;2023-05-07T03:56:55;22.08;;;17.90;;
57067;SDS011;43391;47.448;18.904;2023-05-07T03:59:21;27.25;;;22.38;;
57067;SDS011;43391;47.448;18.904;2023-05-07T04:01:47;30.13;;;22.52;;
57067;SDS011;43391;47.448;18.904;2023-05-07T04:04:13;28.13;;;22.23;;
57067;SDS011;43391;47.448;18.904;2023-05-07T04:06:39;30.90;;;21.92;;
57067;SDS011;43391;47.448;18.904;2023-05-07T04:09:05;26.27;;;20.23;;
57067;SDS011;43391;47.448;18.904;2023-05-07T04:11:31;26.88;;;20.17;;
57067;SDS011;43391;47.448;18.904;2023-05-07T04:13:56;22.60;;;18.73;;
57067;SDS011;43391;47.448;18.904;2023-05-07T04:16:22;22.85;;;18.50;;
57067;SDS011;43391;47.448;18.904;2023-05-07T04:18:47;24.60;;;19.17;;
57067;SDS011;43391;47.448;18.904;2023-05-07T04:21:16;20.60;;;16.80;;
57067;SDS011;43391;47.448;18.904;2023-05-07T04:23:42;16.75;;;14.35;;
57067;SDS011;43391;47.448;18.904;2023-05-07T04:26:08;18.38;;;14.18;;
57067;SDS011;43391;47.448;18.904;2023-05-07T04:28:34;17.55;;;14.15;;
57067;SDS011;43391;47.448;18.904;2023-05-07T04:31:00;16.92;;;13.40;;
57067;SDS011;43391;47.448;18.904;2023-05-07T04:33:25;19.55;;;14.70;;
57067;SDS011;43391;47.448;18.904;2023-05-07T04:35:51;18.67;;;14.35;;
57067;SDS011;43391;47.448;18.904;2023-05-07T04:38:16;20.58;;;15.95;;
57067;SDS011;43391;47.448;18.904;2023-05-07T04:40:43;20.83;;;17.58;;
57067;SDS011;43391;47.448;18.904;2023-05-07T04:43:08;19.60;;;15.90;;
57067;SDS011;43391;47.448;18.904;2023-05-07T04:45:34;19.10;;;15.98;;
57067;SDS011;43391;47.448;18.904;2023-05-07T04:48:00;16.42;;;13.95;;
57067;SDS011;43391;47.448;18.904;2023-05-07T04:50:26;18.73;;;13.85;;
57067;SDS011;43391;47.448;18.904;2023-05-07T04:52:51;16.70;;;13.45;;
57067;SDS011;43391;47.448;18.904;2023-05-07T04:55:16;15.10;;;12.95;;
57067;SDS011;43391;47.448;18.904;2023-05-07T04:57:42;15.10;;;12.70;;
57067;SDS011;43391;47.448;18.904;2023-05-07T05:00:07;17.38;;;12.07;;
57067;SDS011;43391;47.448;18.904;2023-05-07T05:02:34;14.27;;;12.38;;
57067;SDS011;43391;47.448;18.904;2023-05-07T05:05:00;13.82;;;12.25;;
57067;SDS011;43391;47.448;18.904;2023-05-07T05:07:27;15.77;;;12.80;;
57067;SDS011;43391;47.448;18.904;2023-05-07T05:09:53;19.05;;;11.93;;
57067;SDS011;43391;47.448;18.904;2023-05-07T05:12:18;14.45;;;12.48;;
57067;SDS011;43391;47.448;18.904;2023-05-07T05:14:44;14.77;;;11.98;;
57067;SDS011;43391;47.448;18.904;2023-05-07T05:17:09;17.98;;;11.82;;
57067;SDS011;43391;47.448;18.904;2023-05-07T05:19:35;13.65;;;12.10;;
57067;SDS011;43391;47.448;18.904;2023-05-07T05:22:00;14.77;;;12.52;;
57067;SDS011;43391;47.448;18.904;2023-05-07T05:24:29;15.02;;;11.77;;
57067;SDS011;43391;47.448;18.904;2023-05-07T05:26:55;17.15;;;13.65;;
57067;SDS011;43391;47.448;18.904;2023-05-07T05:29:20;17.25;;;13.90;;
57067;SDS011;43391;47.448;18.904;2023-05-07T05:31:45;18.35;;;15.25;;
57067;SDS011;43391;47.448;18.904;2023-05-07T05:34:11;20.17;;;15.48;;
57067;SDS011;43391;47.448;18.904;2023-05-07T05:36:36;19.98;;;16.60;;
57067;SDS011;43391;47.448;18.904;2023-05-07T05:39:01;21.17;;;15.98;;
57067;SDS011;43391;47.448;18.904;2023-05-07T05:41:27;21.63;;;17.02;;
57067;SDS011;43391;47.448;18.904;2023-05-07T05:43:52;20.63;;;15.82;;
57067;SDS011;43391;47.448;18.904;2023-05-07T05:46:18;19.52;;;15.25;;
57067;SDS011;43391;47.448;18.904;2023-05-07T05:48:43;19.13;;;14.20;;
57067;SDS011;43391;47.448;18.904;2023-05-07T05:51:09;18.33;;;14.85;;
57067;SDS011;43391;47.448;18.904;2023-05-07T05:53:34;15.63;;;11.88;;
57067;SDS011;43391;47.448;18.904;2023-05-07T05:56:00;14.30;;;12.07;;
57067;SDS011;43391;47.448;18.904;2023-05-07T05:58:25;16.23;;;12.07;;
57067;SDS011;43391;47.448;18.904;2023-05-07T06:00:51;15.68;;;12.85;;
57067;SDS011;43391;47.448;18.904;2023-05-07T06:03:17;18.70;;;13.07;;
57067;SDS011;43391;47.448;18.904;2023-05-07T06:05:42;15.90;;;13.10;;
57067;SDS011;43391;47.448;18.904;2023-05-07T06:08:08;16.23;;;12.63;;
57067;SDS011;43391;47.448;18.904;2023-05-07T06:10:33;14.98;;;12.48;;
57067;SDS011;43391;47.448;18.904;2023-05-07T06:13:01;15.98;;;10.90;;
57067;SDS011;43391;47.448;18.904;2023-05-07T06:15:26;15.73;;;11.18;;
57067;SDS011;43391;47.448;18.904;2023-05-07T06:17:52;13.68;;;10.23;;
57067;SDS011;43391;47.448;18.904;2023-05-07T06:20:17;10.13;;;7.80;;
57067;SDS011;43391;47.448;18.904;2023-05-07T06:22:42;9.55;;;8.07;;
57067;SDS011;43391;47.448;18.904;2023-05-07T06:25:08;9.20;;;8.25;;
57067;SDS011;43391;47.448;18.904;2023-05-07T06:27:34;8.90;;;7.38;;
57067;SDS011;43391;47.448;18.904;2023-05-07T06:30:00;8.68;;;7.70;;
57067;SDS011;43391;47.448;18.904;2023-05-07T06:32:26;9.82;;;7.68;;
57067;SDS011;43391;47.448;18.904;2023-05-07T06:34:51;8.32;;;6.88;;
57067;SDS011;43391;47.448;18.904;2023-05-07T06:37:16;12.43;;;8.30;;
57067;SDS011;43391;47.448;18.904;2023-05-07T06:39:42;7.43;;;6.43;;
57067;SDS011;43391;47.448;18.904;2023-05-07T06:42:07;7.35;;;5.78;;
57067;SDS011;43391;47.448;18.904;2023-05-07T06:44:32;7.68;;;6.28;;
57067;SDS011;43391;47.448;18.904;2023-05-07T06:46:58;7.05;;;5.45;;
57067;SDS011;43391;47.448;18.904;2023-05-07T06:49:23;7.25;;;5.80;;
57067;SDS011;43391;47.448;18.904;2023-05-07T06:51:49;8.38;;;5.28;;
57067;SDS011;43391;47.448;18.904;2023-05-07T06:54:14;11.10;;;7.30;;
57067;SDS011;43391;47.448;18.904;2023-05-07T06:56:40;9.27;;;6.82;;
57067;SDS011;43391;47.448;18.904;2023-05-07T06:59:05;6.55;;;5.15;;
57067;SDS011;43391;47.448;18.904;2023-05-07T07:01:31;6.93;;;4.88;;
57067;SDS011;43391;47.448;18.904;2023-05-07T07:03:57;7.25;;;5.93;;
57067;SDS011;43391;47.448;18.904;2023-05-07T07:06:22;7.43;;;5.45;;
57067;SDS011;43391;47.448;18.904;2023-05-07T07:08:47;17.48;;;15.52;;
57067;SDS011;43391;47.448;18.904;2023-05-07T07:11:13;10.15;;;7.07;;
57067;SDS011;43391;47.448;18.904;2023-05-07T07:13:38;7.20;;;6.45;;
57067;SDS011;43391;47.448;18.904;2023-05-07T07:16:05;7.57;;;6.75;;
57067;SDS011;43391;47.448;18.904;2023-05-07T07:18:30;9.40;;;6.82;;
57067;SDS011;43391;47.448;18.904;2023-05-07T07:20:55;11.10;;;6.65;;
57067;SDS011;43391;47.448;18.904;2023-05-07T07:23:21;8.35;;;7.00;;
57067;SDS011;43391;47.448;18.904;2023-05-07T07:25:46;12.85;;;9.82;;
57067;SDS011;43391;47.448;18.904;2023-05-07T07:28:12;11.98;;;10.07;;
57067;SDS011;43391;47.448;18.904;2023-05-07T07:30:38;48.42;;;39.67;;
57067;SDS011;43391;47.448;18.904;2023-05-07T07:33:03;26.30;;;22.42;;
57067;SDS011;43391;47.448;18.904;2023-05-07T07:35:30;17.92;;;12.95;;
57067;SDS011;43391;47.448;18.904;2023-05-07T07:37:55;18.13;;;13.02;;
57067;SDS011;43391;47.448;18.904;2023-05-07T07:40:21;15.35;;;12.32;;
57067;SDS011;43391;47.448;18.904;2023-05-07T07:42:46;16.85;;;12.73;;
57067;SDS011;43391;47.448;18.904;2023-05-07T07:45:12;19.13;;;13.43;;
57067;SDS011;43391;47.448;18.904;2023-05-07T07:47:37;15.57;;;13.00;;
57067;SDS011;43391;47.448;18.904;2023-05-07T07:50:04;17.30;;;14.15;;
57067;SDS011;43391;47.448;18.904;2023-05-07T07:52:30;18.40;;;15.07;;
57067;SDS011;43391;47.448;18.904;2023-05-07T07:54:55;19.70;;;14.68;;
57067;SDS011;43391;47.448;18.904;2023-05-07T07:57:21;17.83;;;15.63;;
57067;SDS011;43391;47.448;18.904;2023-05-07T07:59:46;19.45;;;15.80;;
57067;SDS011;43391;47.448;18.904;2023-05-07T08:02:11;17.83;;;14.75;;
57067;SDS011;43391;47.448;18.904;2023-05-07T08:04:37;18.60;;;15.60;;
57067;SDS011;43391;47.448;18.904;2023-05-07T08:07:02;18.55;;;15.13;;
57067;SDS011;43391;47.448;18.904;2023-05-07T08:09:28;19.40;;;14.73;;
57067;SDS011;43391;47.448;18.904;2023-05-07T08:11:53;16.23;;;14.18;;
57067;SDS011;43391;47.448;18.904;2023-05-07T08:14:19;17.63;;;13.50;;
57067;SDS011;43391;47.448;18.904;2023-05-07T08:16:44;15.52;;;13.80;;
57067;SDS011;43391;47.448;18.904;2023-05-07T08:19:10;19.08;;;13.65;;
57067;SDS011;43391;47.448;18.904;2023-05-07T08:21:38;16.95;;;13.27;;
57067;SDS011;43391;47.448;18.904;2023-05-07T08:26:29;17.45;;;13.18;;
57067;SDS011;43391;47.448;18.904;2023-05-07T08:28:55;18.98;;;14.18;;
57067;SDS011;43391;47.448;18.904;2023-05-07T08:31:21;16.77;;;12.68;;
57067;SDS011;43391;47.448;18.904;2023-05-07T08:33:46;16.77;;;13.40;;
57067;SDS011;43391;47.448;18.904;2023-05-07T08:36:11;15.32;;;12.88;;
57067;SDS011;43391;47.448;18.904;2023-05-07T08:38:37;15.32;;;12.02;;
57067;SDS011;43391;47.448;18.904;2023-05-07T08:41:03;15.30;;;12.75;;
57067;SDS011;43391;47.448;18.904;2023-05-07T08:43:28;13.75;;;12.07;;
57067;SDS011;43391;47.448;18.904;2023-05-07T08:45:57;14.40;;;12.13;;
57067;SDS011;43391;47.448;18.904;2023-05-07T08:48:26;13.90;;;11.52;;
57067;SDS011;43391;47.448;18.904;2023-05-07T08:50:54;12.95;;;11.32;;
57067;SDS011;43391;47.448;18.904;2023-05-07T08:53:20;15.70;;;12.05;;
57067;SDS011;43391;47.448;18.904;2023-05-07T08:55:45;12.73;;;10.07;;
57067;SDS011;43391;47.448;18.904;2023-05-07T08:58:12;14.02;;;11.25;;
57067;SDS011;43391;47.448;18.904;2023-05-07T09:00:37;13.65;;;11.65;;
57067;SDS011;43391;47.448;18.904;2023-05-07T09:03:05;14.73;;;10.70;;
57067;SDS011;43391;47.448;18.904;2023-05-07T09:05:30;13.68;;;10.77;;
57067;SDS011;43391;47.448;18.904;2023-05-07T09:07:58;12.93;;;10.02;;
57067;SDS011;43391;47.448;18.904;2023-05-07T09:12:50;11.32;;;10.02;;
57067;SDS011;43391;47.448;18.904;2023-05-07T09:15:16;12.68;;;8.73;;
57067;SDS011;43391;47.448;18.904;2023-05-07T09:17:42;10.48;;;9.10;;
57067;SDS011;43391;47.448;18.904;2023-05-07T09:20:08;13.70;;;9.95;;
57067;SDS011;43391;47.448;18.904;2023-05-07T09:22:36;12.70;;;10.40;;
57067;SDS011;43391;47.448;18.904;2023-05-07T09:25:02;21.40;;;19.17;;
57067;SDS011;43391;47.448;18.904;2023-05-07T09:27:28;8.70;;;7.35;;
57067;SDS011;43391;47.448;18.904;2023-05-07T09:29:53;13.18;;;8.30;;
57067;SDS011;43391;47.448;18.904;2023-05-07T09:32:18;9.45;;;7.78;;
57067;SDS011;43391;47.448;18.904;2023-05-07T09:34:44;9.30;;;7.53;;
57067;SDS011;43391;47.448;18.904;2023-05-07T09:37:10;9.93;;;7.28;;
57067;SDS011;43391;47.448;18.904;2023-05-07T09:39:47;14.30;;;8.20;;
57067;SDS011;43391;47.448;18.904;2023-05-07T09:42:14;9.27;;;7.40;;
57067;SDS011;43391;47.448;18.904;2023-05-07T09:44:40;12.73;;;7.82;;
57067;SDS011;43391;47.448;18.904;2023-05-07T09:47:06;12.48;;;7.50;;
57067;SDS011;43391;47.448;18.904;2023-05-07T09:49:35;9.57;;;7.72;;
57067;SDS011;43391;47.448;18.904;2023-05-07T09:52:02;9.55;;;7.38;;
57067;SDS011;43391;47.448;18.904;2023-05-07T09:54:30;9.48;;;7.47;;
57067;SDS011;43391;47.448;18.904;2023-05-07T09:56:57;10.60;;;7.72;;
57067;SDS011;43391;47.448;18.904;2023-05-07T09:59:23;13.00;;;9.52;;
57067;SDS011;43391;47.448;18.904;2023-05-07T10:01:50;13.90;;;8.77;;
57067;SDS011;43391;47.448;18.904;2023-05-07T10:04:18;21.08;;;17.73;;
57067;SDS011;43391;47.448;18.904;2023-05-07T10:06:45;12.07;;;9.45;;
57067;SDS011;43391;47.448;18.904;2023-05-07T10:09:12;12.27;;;9.23;;
57067;SDS011;43391;47.448;18.904;2023-05-07T10:11:38;12.55;;;9.88;;
57067;SDS011;43391;47.448;18.904;2023-05-07T10:14:05;12.57;;;10.55;;
57067;SDS011;43391;47.448;18.904;2023-05-07T10:16:34;15.73;;;9.95;;
57067;SDS011;43391;47.448;18.904;2023-05-07T10:19:04;9.63;;;8.55;;
57067;SDS011;43391;47.448;18.904;2023-05-07T10:21:31;11.75;;;8.40;;
57067;SDS011;43391;47.448;18.904;2023-05-07T10:24:05;11.18;;;9.02;;
57067;SDS011;43391;47.448;18.904;2023-05-07T10:26:39;12.30;;;10.23;;
57067;SDS011;43391;47.448;18.904;2023-05-07T10:29:11;11.98;;;8.85;;
57067;SDS011;43391;47.448;18.904;2023-05-07T10:34:28;13.43;;;8.70;;
57067;SDS011;43391;47.448;18.904;2023-05-07T10:36:59;10.30;;;7.82;;
57067;SDS011;43391;47.448;18.904;2023-05-07T10:39:25;9.82;;;7.63;;
57067;SDS011;43391;47.448;18.904;2023-05-07T10:41:51;8.27;;;6.40;;
57067;SDS011;43391;47.448;18.904;2023-05-07T10:44:26;8.75;;;6.65;;
57067;SDS011;43391;47.448;18.904;2023-05-07T10:47:16;10.73;;;7.00;;
57067;SDS011;43391;47.448;18.904;2023-05-07T10:52:17;8.73;;;7.03;;
57067;SDS011;43391;47.448;18.904;2023-05-07T10:55:18;13.63;;;10.13;;
57067;SDS011;43391;47.448;18.904;2023-05-07T10:57:40;9.00;;;6.50;;
57067;SDS011;43391;47.448;18.904;2023-05-07T11:00:56;6.03;;;5.20;;
57067;SDS011;43391;47.448;18.904;2023-05-07T11:05:26;6.03;;;4.75;;
57067;SDS011;43391;47.448;18.904;2023-05-07T11:07:56;4.90;;;4.40;;
57067;SDS011;43391;47.448;18.904;2023-05-07T11:10:23;5.18;;;4.45;;
57067;SDS011;43391;47.448;18.904;2023-05-07T11:13:08;5.25;;;4.53;;
57067;SDS011;43391;47.448;18.904;2023-05-07T11:15:35;5.75;;;4.03;;
57067;SDS011;43391;47.448;18.904;2023-05-07T11:18:01;4.40;;;4.00;;
57067;SDS011;43391;47.448;18.904;2023-05-07T11:26:00;14.07;;;10.85;;
57067;SDS011;43391;47.448;18.904;2023-05-07T11:28:27;4.20;;;3.80;;
57067;SDS011;43391;47.448;18.904;2023-05-07T11:30:53;6.15;;;4.00;;
57067;SDS011;43391;47.448;18.904;2023-05-07T11:33:19;6.65;;;3.92;;
57067;SDS011;43391;47.448;18.904;2023-05-07T11:35:45;3.78;;;3.30;;
57067;SDS011;43391;47.448;18.904;2023-05-07T11:38:11;3.90;;;3.50;;
57067;SDS011;43391;47.448;18.904;2023-05-07T11:40:50;6.40;;;4.30;;
57067;SDS011;43391;47.448;18.904;2023-05-07T11:43:20;6.43;;;4.20;;
57067;SDS011;43391;47.448;18.904;2023-05-07T11:45:45;5.15;;;4.13;;
57067;SDS011;43391;47.448;18.904;2023-05-07T11:48:15;4.72;;;4.07;;
57067;SDS011;43391;47.448;18.904;2023-05-07T11:51:02;6.50;;;4.38;;
57067;SDS011;43391;47.448;18.904;2023-05-07T11:53:32;6.40;;;4.45;;
57067;SDS011;43391;47.448;18.904;2023-05-07T11:56:11;4.57;;;4.00;;
57067;SDS011;43391;47.448;18.904;2023-05-07T11:58:38;5.40;;;3.72;;
57067;SDS011;43391;47.448;18.904;2023-05-07T12:01:06;5.93;;;4.43;;
57067;SDS011;43391;47.448;18.904;2023-05-07T12:03:34;5.63;;;4.53;;
57067;SDS011;43391;47.448;18.904;2023-05-07T12:05:59;5.38;;;3.85;;
57067;SDS011;43391;47.448;18.904;2023-05-07T12:08:25;6.85;;;4.15;;
57067;SDS011;43391;47.448;18.904;2023-05-07T12:10:51;4.72;;;3.90;;
57067;SDS011;43391;47.448;18.904;2023-05-07T12:13:25;4.10;;;3.70;;
57067;SDS011;43391;47.448;18.904;2023-05-07T12:15:52;4.18;;;3.78;;
57067;SDS011;43391;47.448;18.904;2023-05-07T12:18:18;6.07;;;4.63;;
57067;SDS011;43391;47.448;18.904;2023-05-07T12:20:44;4.35;;;3.95;;
57067;SDS011;43391;47.448;18.904;2023-05-07T12:23:10;6.70;;;4.15;;
57067;SDS011;43391;47.448;18.904;2023-05-07T12:25:36;5.10;;;4.60;;
57067;SDS011;43391;47.448;18.904;2023-05-07T12:28:08;6.45;;;4.80;;
57067;SDS011;43391;47.448;18.904;2023-05-07T12:30:38;7.90;;;4.05;;
57067;SDS011;43391;47.448;18.904;2023-05-07T12:33:04;4.68;;;4.20;;
57067;SDS011;43391;47.448;18.904;2023-05-07T12:35:30;4.50;;;3.83;;
57067;SDS011;43391;47.448;18.904;2023-05-07T12:37:57;4.93;;;3.70;;
57067;SDS011;43391;47.448;18.904;2023-05-07T12:40:25;4.88;;;3.88;;
57067;SDS011;43391;47.448;18.904;2023-05-07T12:43:00;4.90;;;4.15;;
57067;SDS011;43391;47.448;18.904;2023-05-07T12:45:25;4.72;;;4.18;;
57067;SDS011;43391;47.448;18.904;2023-05-07T12:47:51;4.97;;;4.07;;
57067;SDS011;43391;47.448;18.904;2023-05-07T12:50:17;3.95;;;3.33;;
57067;SDS011;43391;47.448;18.904;2023-05-07T12:52:43;5.30;;;3.88;;
57067;SDS011;43391;47.448;18.904;2023-05-07T12:55:13;4.78;;;3.88;;
57067;SDS011;43391;47.448;18.904;2023-05-07T13:00:07;4.35;;;3.95;;
57067;SDS011;43391;47.448;18.904;2023-05-07T13:02:34;5.63;;;3.67;;
57067;SDS011;43391;47.448;18.904;2023-05-07T13:05:02;4.07;;;3.42;;
57067;SDS011;43391;47.448;18.904;2023-05-07T13:07:27;3.33;;;2.90;;
57067;SDS011;43391;47.448;18.904;2023-05-07T13:09:53;5.97;;;3.65;;
57067;SDS011;43391;47.448;18.904;2023-05-07T13:12:18;4.00;;;3.20;;
57067;SDS011;43391;47.448;18.904;2023-05-07T13:14:43;3.63;;;2.92;;
57067;SDS011;43391;47.448;18.904;2023-05-07T13:17:09;5.40;;;4.15;;
57067;SDS011;43391;47.448;18.904;2023-05-07T13:19:34;5.20;;;4.18;;
57067;SDS011;43391;47.448;18.904;2023-05-07T13:22:02;6.00;;;4.72;;
57067;SDS011;43391;47.448;18.904;2023-05-07T13:24:28;5.53;;;4.78;;
57067;SDS011;43391;47.448;18.904;2023-05-07T13:26:53;5.13;;;4.40;;
57067;SDS011;43391;47.448;18.904;2023-05-07T13:29:18;8.20;;;4.13;;
57067;SDS011;43391;47.448;18.904;2023-05-07T13:31:44;4.97;;;3.33;;
57067;SDS011;43391;47.448;18.904;2023-05-07T13:34:09;5.50;;;3.70;;
57067;SDS011;43391;47.448;18.904;2023-05-07T13:36:35;7.38;;;4.07;;
57067;SDS011;43391;47.448;18.904;2023-05-07T13:39:04;4.90;;;4.10;;
57067;SDS011;43391;47.448;18.904;2023-05-07T13:41:31;5.90;;;4.13;;
57067;SDS011;43391;47.448;18.904;2023-05-07T13:43:56;7.65;;;4.13;;
57067;SDS011;43391;47.448;18.904;2023-05-07T13:46:21;6.15;;;4.53;;
57067;SDS011;43391;47.448;18.904;2023-05-07T13:48:47;4.78;;;4.38;;
57067;SDS011;43391;47.448;18.904;2023-05-07T13:51:12;6.30;;;4.68;;
57067;SDS011;43391;47.448;18.904;2023-05-07T13:53:38;5.55;;;4.22;;
57067;SDS011;43391;47.448;18.904;2023-05-07T13:56:03;7.45;;;4.97;;
57067;SDS011;43391;47.448;18.904;2023-05-07T13:58:29;5.70;;;4.65;;
57067;SDS011;43391;47.448;18.904;2023-05-07T14:00:55;5.72;;;4.80;;
57067;SDS011;43391;47.448;18.904;2023-05-07T14:03:20;6.18;;;4.90;;
57067;SDS011;43391;47.448;18.904;2023-05-07T14:05:46;4.93;;;4.47;;
57067;SDS011;43391;47.448;18.904;2023-05-07T14:08:11;5.72;;;4.55;;
57067;SDS011;43391;47.448;18.904;2023-05-07T14:10:38;4.88;;;4.40;;
57067;SDS011;43391;47.448;18.904;2023-05-07T14:13:04;6.03;;;4.53;;
57067;SDS011;43391;47.448;18.904;2023-05-07T14:15:30;8.77;;;4.13;;
57067;SDS011;43391;47.448;18.904;2023-05-07T14:17:57;5.20;;;4.20;;
57067;SDS011;43391;47.448;18.904;2023-05-07T14:20:23;6.25;;;5.15;;
57067;SDS011;43391;47.448;18.904;2023-05-07T14:22:49;5.68;;;4.40;;
57067;SDS011;43391;47.448;18.904;2023-05-07T14:25:15;13.05;;;4.28;;
57067;SDS011;43391;47.448;18.904;2023-05-07T14:27:40;6.38;;;4.38;;
57067;SDS011;43391;47.448;18.904;2023-05-07T14:30:06;5.15;;;4.28;;
57067;SDS011;43391;47.448;18.904;2023-05-07T14:32:32;6.60;;;4.70;;
57067;SDS011;43391;47.448;18.904;2023-05-07T14:34:58;5.85;;;4.45;;
57067;SDS011;43391;47.448;18.904;2023-05-07T14:37:23;5.22;;;3.85;;